Time;durP1;ratioP1;P1;durP2;ratioP2;P2;SDS_P1;SDS_P2;PMS_P1;PMS_P2;Temp;Humidity;BMP_temperature;BMP_pressure;BME280_temperature;BME280_humidity;BME280_pressure;Samples;Min_cycle;Max_cycle;Signal;HPM_P1;HPM_P2
2023/12/21 05:01:49;;;;;;;0.70;0.70;;;8.80;99.90;;;;;;5263532;23;20242;-74
2023/12/21 05:04:15;;;;;;;1.58;0.80;;;8.80;99.90;;;;;;4912637;29;20220;-74
2023/12/21 05:06:42;;;;;;;1.02;1.02;;;8.80;99.90;;;;;;4914336;29;20211;-72
2023/12/21 05:09:09;;;;;;;1.00;1.00;;;8.80;99.90;;;;;;4912434;29;20233;-74
2023/12/21 05:11:36;;;;;;;1.08;1.08;;;8.80;99.90;;;;;;4899061;29;20223;-73
2023/12/21 05:14:02;;;;;;;0.85;0.85;;;8.80;99.90;;;;;;4893650;29;20221;-73
2023/12/21 05:16:29;;;;;;;0.90;0.90;;;8.80;99.90;;;;;;4899790;29;20222;-72
2023/12/21 05:18:57;;;;;;;0.80;0.80;;;8.80;99.90;;;;;;4892283;29;20560;-73
2023/12/21 05:21:24;;;;;;;0.90;0.90;;;8.80;99.90;;;;;;4897526;29;20342;-73
2023/12/21 05:23:51;;;;;;;0.65;0.65;;;8.80;99.90;;;;;;4894889;29;20213;-73
2023/12/21 05:26:17;;;;;;;0.75;0.75;;;8.80;99.90;;;;;;4895124;29;20231;-74
2023/12/21 05:28:44;;;;;;;0.50;0.50;;;8.80;99.90;;;;;;4900450;29;20235;-74
2023/12/21 05:31:11;;;;;;;0.57;0.57;;;8.80;99.90;;;;;;4898650;29;20231;-73
2023/12/21 05:33:39;;;;;;;0.55;0.55;;;8.80;99.90;;;;;;4894232;29;20214;-73
2023/12/21 05:36:07;;;;;;;1.67;0.60;;;8.80;99.90;;;;;;4890576;29;20218;-73
2023/12/21 05:38:34;;;;;;;1.23;1.13;;;8.80;99.90;;;;;;4897280;29;20209;-74
2023/12/21 05:41:02;;;;;;;0.60;0.60;;;8.80;99.90;;;;;;4896830;29;20227;-73
2023/12/21 05:43:28;;;;;;;0.60;0.60;;;8.80;99.90;;;;;;4892876;29;20216;-74
2023/12/21 05:45:55;;;;;;;0.73;0.73;;;8.80;99.90;;;;;;4895571;29;20211;-72
2023/12/21 05:48:22;;;;;;;0.57;0.57;;;8.80;99.90;;;;;;4896202;29;20235;-73
2023/12/21 05:50:48;;;;;;;1.30;0.65;;;8.80;99.90;;;;;;4885413;29;20239;-73
2023/12/21 05:53:16;;;;;;;0.50;0.50;;;8.80;99.90;;;;;;4889031;29;20678;-73
2023/12/21 05:55:43;;;;;;;0.50;0.50;;;8.80;99.90;;;;;;4894459;29;20212;-73
2023/12/21 05:58:10;;;;;;;1.27;1.17;;;8.90;99.90;;;;;;4893106;29;20209;-73
2023/12/21 06:00:37;;;;;;;0.70;0.70;;;8.90;99.90;;;;;;4891715;29;20239;-74
2023/12/21 06:03:04;;;;;;;0.85;0.85;;;8.90;99.90;;;;;;4894686;29;20214;-74
2023/12/21 06:05:31;;;;;;;1.27;0.65;;;8.90;99.90;;;;;;4888091;29;20216;-74
2023/12/21 06:07:58;;;;;;;1.52;0.90;;;8.90;99.90;;;;;;4891298;29;20247;-75
2023/12/21 06:10:26;;;;;;;1.05;1.05;;;8.90;99.90;;;;;;4894987;29;20219;-74
2023/12/21 06:12:53;;;;;;;0.80;0.70;;;8.90;99.90;;;;;;4900333;29;20207;-74
2023/12/21 06:15:20;;;;;;;2.95;0.75;;;8.90;99.90;;;;;;4898585;29;20221;-74
2023/12/21 06:17:46;;;;;;;0.50;0.50;;;8.90;99.90;;;;;;4901554;29;20211;-74
2023/12/21 06:20:13;;;;;;;1.00;1.00;;;8.90;99.90;;;;;;4891987;29;20216;-74
2023/12/21 06:22:40;;;;;;;0.50;0.50;;;8.90;99.90;;;;;;4897582;29;20624;-75
2023/12/21 06:25:07;;;;;;;0.85;0.20;;;8.90;99.90;;;;;;4900335;29;20212;-74
2023/12/21 06:27:35;;;;;;;0.70;0.70;;;8.90;99.90;;;;;;4897009;29;20642;-74
2023/12/21 06:30:02;;;;;;;0.70;0.70;;;8.90;99.90;;;;;;4900766;29;20211;-73
2023/12/21 06:32:29;;;;;;;0.43;0.43;;;8.90;99.90;;;;;;4901408;29;20232;-74
2023/12/21 06:34:55;;;;;;;0.60;0.60;;;8.90;99.90;;;;;;4896931;29;20208;-74
2023/12/21 06:37:22;;;;;;;0.90;0.90;;;8.90;99.90;;;;;;4893635;29;20220;-72
2023/12/21 06:39:49;;;;;;;3.90;0.43;;;9.00;99.90;;;;;;4899024;29;20615;-71
2023/12/21 06:42:15;;;;;;;0.75;0.75;;;9.00;99.90;;;;;;4897405;29;20228;-72
2023/12/21 06:44:44;;;;;;;0.43;0.43;;;9.00;99.90;;;;;;4900011;29;20216;-72
2023/12/21 06:47:10;;;;;;;0.68;0.65;;;9.00;99.90;;;;;;4900917;29;20217;-72
2023/12/21 06:49:38;;;;;;;1.23;0.88;;;9.00;99.90;;;;;;4898754;29;20228;-72
2023/12/21 06:52:04;;;;;;;1.75;1.65;;;9.00;99.90;;;;;;4899862;29;20231;-72
2023/12/21 06:54:31;;;;;;;11.65;7.90;;;9.00;99.90;;;;;;4901142;29;20227;-72
2023/12/21 06:56:58;;;;;;;0.68;0.68;;;9.00;99.90;;;;;;4900247;29;20628;-72
2023/12/21 06:59:24;;;;;;;0.63;0.63;;;9.00;99.90;;;;;;4900099;29;20209;-72
2023/12/21 07:01:52;;;;;;;0.65;0.65;;;9.00;99.90;;;;;;4897156;29;20255;-72
2023/12/21 07:04:19;;;;;;;3.00;2.80;;;9.00;99.90;;;;;;4897700;29;20213;-71
2023/12/21 07:06:46;;;;;;;1.38;1.30;;;9.00;99.90;;;;;;4901198;29;20212;-72
2023/12/21 07:09:14;;;;;;;0.88;0.70;;;9.10;99.90;;;;;;4898668;29;20228;-72
2023/12/21 07:11:40;;;;;;;1.00;1.00;;;9.00;99.90;;;;;;4896199;29;20237;-72
2023/12/21 07:14:07;;;;;;;0.35;0.35;;;9.10;99.90;;;;;;4896055;29;20212;-72
2023/12/21 07:16:34;;;;;;;0.50;0.50;;;9.00;99.90;;;;;;4897460;29;20211;-72
2023/12/21 07:19:02;;;;;;;1.00;1.00;;;9.10;99.90;;;;;;4893955;29;20410;-72
2023/12/21 07:21:29;;;;;;;0.40;0.40;;;9.10;99.90;;;;;;4896318;29;20292;-72
2023/12/21 07:23:56;;;;;;;1.60;1.55;;;9.10;99.90;;;;;;4894268;29;20207;-72
2023/12/21 07:26:22;;;;;;;0.40;0.40;;;9.10;99.90;;;;;;4894563;29;20222;-72
2023/12/21 07:28:49;;;;;;;0.93;0.73;;;9.10;99.90;;;;;;4897736;29;20228;-72
2023/12/21 07:31:17;;;;;;;0.30;0.30;;;9.10;99.90;;;;;;4897951;29;20235;-72
2023/12/21 07:33:44;;;;;;;0.70;0.68;;;9.00;99.90;;;;;;4895681;29;20243;-71
2023/12/21 07:36:14;;;;;;;0.60;0.60;;;9.00;99.90;;;;;;4895387;29;20212;-71
2023/12/21 07:38:41;;;;;;;0.30;0.30;;;9.00;99.90;;;;;;4897729;29;20209;-71
2023/12/21 07:41:08;;;;;;;0.30;0.30;;;9.00;99.90;;;;;;4897259;29;20954;-71
2023/12/21 07:43:36;;;;;;;0.40;0.40;;;9.00;99.90;;;;;;4897556;29;20626;-72
2023/12/21 07:46:02;;;;;;;0.20;0.20;;;9.00;99.90;;;;;;4896822;29;20300;-72
2023/12/21 07:48:29;;;;;;;0.30;0.30;;;9.00;99.90;;;;;;4896371;29;20244;-72
2023/12/21 07:50:56;;;;;;;0.45;0.45;;;9.00;99.90;;;;;;4897496;29;20240;-72
2023/12/21 07:53:24;;;;;;;0.20;0.20;;;9.00;99.90;;;;;;4894545;29;20218;-72
2023/12/21 07:55:51;;;;;;;0.30;0.30;;;9.10;99.90;;;;;;4895818;29;20211;-72
2023/12/21 07:58:17;;;;;;;0.95;0.95;;;9.10;99.90;;;;;;4897399;29;20209;-73
2023/12/21 08:00:44;;;;;;;0.20;0.20;;;9.00;99.90;;;;;;4897119;29;20719;-72
2023/12/21 08:03:11;;;;;;;0.20;0.20;;;9.00;99.90;;;;;;4896368;29;20302;-73
2023/12/21 08:05:37;;;;;;;0.20;0.20;;;9.00;99.90;;;;;;4895653;29;20212;-73
2023/12/21 08:08:04;;;;;;;0.85;0.85;;;9.00;99.90;;;;;;4892655;29;20756;-73
2023/12/21 08:10:33;;;;;;;0.20;0.20;;;9.10;99.90;;;;;;4892533;29;20288;-73
2023/12/21 08:12:59;;;;;;;0.57;0.57;;;9.10;99.90;;;;;;4897688;29;20213;-72
2023/12/21 08:15:26;;;;;;;0.43;0.30;;;9.00;99.90;;;;;;4894690;29;20212;-73
2023/12/21 08:17:55;;;;;;;0.43;0.17;;;9.00;99.90;;;;;;4895374;29;20216;-73
2023/12/21 08:20:22;;;;;;;0.17;0.17;;;9.00;99.90;;;;;;4893124;29;20235;-73
2023/12/21 08:22:49;;;;;;;0.20;0.20;;;9.10;99.90;;;;;;4899687;29;20208;-72
2023/12/21 08:25:16;;;;;;;0.20;0.20;;;9.10;99.90;;;;;;4892985;29;20208;-72
2023/12/21 08:27:44;;;;;;;0.20;0.20;;;9.10;99.90;;;;;;4896090;29;20208;-73
2023/12/21 08:30:12;;;;;;;0.20;0.20;;;9.10;99.90;;;;;;4896199;29;20227;-73
2023/12/21 08:32:39;;;;;;;0.30;0.30;;;9.10;99.90;;;;;;4895858;29;20216;-72
2023/12/21 08:35:06;;;;;;;0.47;0.47;;;9.10;99.90;;;;;;4892453;29;20215;-71
2023/12/21 08:37:33;;;;;;;0.20;0.20;;;9.10;99.90;;;;;;4889979;29;20291;-70
2023/12/21 08:40:00;;;;;;;0.25;0.25;;;9.10;99.90;;;;;;4893116;29;20544;-72
2023/12/21 08:42:26;;;;;;;0.20;0.20;;;9.10;99.90;;;;;;4893495;29;20248;-73
2023/12/21 08:44:55;;;;;;;0.25;0.25;;;9.10;99.90;;;;;;4896683;29;20626;-73
2023/12/21 08:47:22;;;;;;;0.20;0.20;;;9.10;99.90;;;;;;4896564;29;20221;-73
2023/12/21 08:49:48;;;;;;;0.17;0.17;;;9.20;99.90;;;;;;4891736;29;20246;-73
2023/12/21 08:52:15;;;;;;;1.17;1.05;;;9.20;99.90;;;;;;4898505;29;20239;-73
2023/12/21 08:54:42;;;;;;;0.65;0.63;;;9.20;99.90;;;;;;4895243;29;20220;-73
2023/12/21 08:57:10;;;;;;;0.20;0.20;;;9.10;99.90;;;;;;4892322;29;20307;-73
2023/12/21 08:59:37;;;;;;;0.10;0.10;;;9.10;99.90;;;;;;4899134;29;20213;-73
2023/12/21 09:02:05;;;;;;;0.45;0.40;;;9.10;99.90;;;;;;4895931;29;20247;-74
2023/12/21 09:04:32;;;;;;;0.20;0.20;;;9.10;99.90;;;;;;4896330;29;20620;-73
2023/12/21 09:06:59;;;;;;;0.20;0.20;;;9.20;99.90;;;;;;4896077;29;20219;-73
2023/12/21 09:09:25;;;;;;;0.40;0.40;;;9.20;99.90;;;;;;4896015;29;20229;-73
2023/12/21 09:11:52;;;;;;;0.40;0.40;;;9.10;99.90;;;;;;4897746;29;20231;-73
2023/12/21 09:14:19;;;;;;;0.40;0.40;;;9.10;99.90;;;;;;4896504;29;20230;-73
2023/12/21 09:16:46;;;;;;;0.20;0.20;;;9.20;99.90;;;;;;4895918;29;20212;-72
2023/12/21 09:19:14;;;;;;;0.20;0.20;;;9.20;99.90;;;;;;4894756;29;20203;-73
2023/12/21 09:21:40;;;;;;;0.40;0.40;;;9.20;99.90;;;;;;4895191;29;20233;-73
2023/12/21 09:24:08;;;;;;;1.90;1.77;;;9.20;99.90;;;;;;4897856;29;20208;-72
2023/12/21 09:26:35;;;;;;;0.20;0.20;;;9.20;99.90;;;;;;4896117;29;20267;-73
2023/12/21 09:29:04;;;;;;;0.30;0.30;;;9.20;99.90;;;;;;4896247;29;20233;-72
2023/12/21 09:31:30;;;;;;;0.20;0.20;;;9.20;99.90;;;;;;4896253;29;20688;-72
2023/12/21 09:33:57;;;;;;;0.30;0.30;;;9.20;99.90;;;;;;4896050;29;20675;-72
2023/12/21 09:36:25;;;;;;;0.20;0.20;;;9.20;99.90;;;;;;4898445;29;20218;-72
2023/12/21 09:38:52;;;;;;;0.20;0.20;;;9.30;99.90;;;;;;4888875;29;20215;-72
2023/12/21 09:41:19;;;;;;;0.70;0.57;;;9.30;99.90;;;;;;4895619;29;20287;-72
2023/12/21 09:43:48;;;;;;;0.20;0.20;;;9.20;99.90;;;;;;4892752;29;20243;-71
2023/12/21 09:46:16;;;;;;;0.32;0.32;;;9.30;99.90;;;;;;4892076;29;20675;-72
2023/12/21 09:48:44;;;;;;;0.30;0.30;;;9.30;99.90;;;;;;4899661;29;20216;-72
2023/12/21 09:51:13;;;;;;;0.60;0.57;;;9.30;99.90;;;;;;4901768;29;20233;-71
2023/12/21 09:53:43;;;;;;;0.30;0.30;;;9.30;99.90;;;;;;4899885;29;20213;-72
2023/12/21 09:56:13;;;;;;;0.43;0.32;;;9.30;99.90;;;;;;4899603;29;20216;-71
2023/12/21 09:58:40;;;;;;;0.43;0.43;;;9.30;99.90;;;;;;4898890;29;20215;-71
2023/12/21 10:01:07;;;;;;;1.15;0.55;;;9.40;99.90;;;;;;4899235;29;20608;-72
2023/12/21 10:03:34;;;;;;;0.28;0.28;;;9.40;99.90;;;;;;4901022;29;20582;-73
2023/12/21 10:06:02;;;;;;;0.40;0.40;;;9.40;99.90;;;;;;4900440;29;20216;-72
2023/12/21 10:08:33;;;;;;;0.30;0.30;;;9.40;99.90;;;;;;4899420;29;20217;-72
2023/12/21 10:11:02;;;;;;;0.43;0.43;;;9.50;99.90;;;;;;4899077;29;20324;-71
2023/12/21 10:13:29;;;;;;;0.20;0.20;;;9.50;99.90;;;;;;4899449;29;20265;-71
2023/12/21 10:15:59;;;;;;;0.20;0.20;;;9.50;99.90;;;;;;4894363;29;20211;-72
2023/12/21 10:18:26;;;;;;;0.52;0.52;;;9.50;99.90;;;;;;4898611;29;20244;-72
2023/12/21 10:20:53;;;;;;;0.30;0.30;;;9.50;99.90;;;;;;4899101;29;20268;-71
2023/12/21 10:23:20;;;;;;;0.40;0.40;;;9.50;99.90;;;;;;4899464;29;20216;-72
2023/12/21 10:25:48;;;;;;;1.05;0.50;;;9.50;99.90;;;;;;4899194;29;20219;-72
2023/12/21 10:28:16;;;;;;;0.25;0.25;;;9.50;99.90;;;;;;4900395;29;20679;-71
2023/12/21 10:30:42;;;;;;;0.20;0.20;;;9.50;99.90;;;;;;4898979;29;20335;-72
2023/12/21 10:33:11;;;;;;;1.38;1.27;;;9.50;99.90;;;;;;4904222;29;20672;-72
2023/12/21 10:35:38;;;;;;;0.30;0.30;;;9.50;99.90;;;;;;4900204;29;20212;-71
2023/12/21 10:38:05;;;;;;;0.85;0.80;;;9.50;99.90;;;;;;4900042;29;20216;-71
2023/12/21 10:40:33;;;;;;;0.57;0.57;;;9.50;99.90;;;;;;4901378;29;20228;-71
2023/12/21 10:43:00;;;;;;;0.30;0.30;;;9.50;99.90;;;;;;4900028;29;20216;-71
2023/12/21 10:45:28;;;;;;;0.20;0.20;;;9.50;99.90;;;;;;4899485;29;20322;-74
2023/12/21 10:47:56;;;;;;;0.28;0.20;;;9.50;99.90;;;;;;4894226;29;20229;-72
2023/12/21 10:50:25;;;;;;;0.30;0.30;;;9.50;99.90;;;;;;4899079;29;20321;-72
2023/12/21 10:52:53;;;;;;;0.20;0.20;;;9.50;99.90;;;;;;4899206;29;20218;-71
2023/12/21 10:55:20;;;;;;;0.30;0.30;;;9.50;99.90;;;;;;4898854;29;20595;-72
2023/12/21 10:57:51;;;;;;;2.47;2.28;;;9.60;99.90;;;;;;4898714;29;20285;-71
2023/12/21 11:00:18;;;;;;;0.30;0.30;;;9.50;99.90;;;;;;4898042;29;20802;-71
2023/12/21 11:02:47;;;;;;;0.20;0.20;;;9.60;99.90;;;;;;4901909;29;20309;-72
2023/12/21 11:05:19;;;;;;;0.30;0.30;;;9.50;99.90;;;;;;4901977;29;20213;-72
2023/12/21 11:07:49;;;;;;;0.20;0.20;;;9.60;99.90;;;;;;4903085;29;20253;-71
2023/12/21 11:10:16;;;;;;;0.40;0.40;;;9.50;99.90;;;;;;4894534;29;20221;-71
2023/12/21 11:12:43;;;;;;;0.40;0.40;;;9.60;99.90;;;;;;4897126;29;20610;-71
2023/12/21 11:15:10;;;;;;;0.30;0.30;;;9.50;99.90;;;;;;4897348;29;20273;-71
2023/12/21 11:17:39;;;;;;;0.20;0.20;;;9.50;99.90;;;;;;4902919;29;20222;-70
2023/12/21 11:20:10;;;;;;;0.43;0.30;;;9.60;99.90;;;;;;4898145;29;20205;-71
2023/12/21 11:22:38;;;;;;;0.35;0.35;;;9.60;99.90;;;;;;4895608;29;20209;-72
2023/12/21 11:25:07;;;;;;;0.47;0.47;;;9.60;99.90;;;;;;4897793;29;20245;-71
2023/12/21 11:27:37;;;;;;;0.40;0.40;;;9.60;99.90;;;;;;4896886;29;20217;-71
2023/12/21 11:30:11;;;;;;;0.65;0.65;;;9.60;99.90;;;;;;4897952;29;20264;-71
2023/12/21 11:32:39;;;;;;;1.05;1.05;;;9.60;99.90;;;;;;4899198;29;20630;-71
2023/12/21 11:35:18;;;;;;;0.50;0.50;;;9.70;99.90;;;;;;4890311;29;20206;-71
2023/12/21 11:37:45;;;;;;;0.38;0.38;;;9.70;99.90;;;;;;4897993;29;20224;-72
2023/12/21 11:40:14;;;;;;;0.80;0.80;;;9.70;99.90;;;;;;4897321;29;20582;-72
2023/12/21 11:42:46;;;;;;;1.65;1.50;;;9.70;99.90;;;;;;4901394;29;20271;-72
2023/12/21 11:45:22;;;;;;;0.30;0.30;;;9.70;99.90;;;;;;4897228;29;20282;-72
2023/12/21 11:47:49;;;;;;;0.30;0.30;;;9.70;99.90;;;;;;4896960;29;20695;-71
2023/12/21 11:50:21;;;;;;;0.30;0.30;;;9.70;99.90;;;;;;4891554;29;20222;-71
2023/12/21 11:52:48;;;;;;;0.50;0.50;;;9.70;99.90;;;;;;4894986;29;20237;-72
2023/12/21 11:55:25;;;;;;;0.30;0.30;;;9.70;99.90;;;;;;4892930;29;20288;-72
2023/12/21 11:58:07;;;;;;;0.20;0.20;;;9.70;99.90;;;;;;4897745;29;20217;-73
2023/12/21 12:00:33;;;;;;;0.30;0.30;;;9.70;99.90;;;;;;4895535;29;20246;-72
2023/12/21 12:03:01;;;;;;;0.20;0.20;;;9.70;99.90;;;;;;4895853;29;20214;-72
2023/12/21 12:05:30;;;;;;;0.38;0.38;;;9.70;99.90;;;;;;4891633;29;20236;-72
2023/12/21 12:07:57;;;;;;;0.80;0.80;;;9.70;99.90;;;;;;4893950;29;20216;-70
2023/12/21 12:10:24;;;;;;;0.30;0.30;;;9.70;99.90;;;;;;4895038;29;20232;-70
2023/12/21 12:12:54;;;;;;;0.40;0.40;;;9.80;99.90;;;;;;4895678;29;20214;-71
2023/12/21 12:15:21;;;;;;;0.57;0.57;;;9.80;99.90;;;;;;4896662;29;20249;-72
2023/12/21 12:17:58;;;;;;;0.57;0.57;;;9.80;99.90;;;;;;4894408;29;20664;-73
2023/12/21 12:20:31;;;;;;;0.73;0.73;;;9.80;99.90;;;;;;4891197;29;20210;-72
2023/12/21 12:22:58;;;;;;;0.70;0.70;;;9.80;99.90;;;;;;4896380;29;20296;-71
2023/12/21 12:25:27;;;;;;;1.10;0.20;;;9.70;99.90;;;;;;4900273;29;20220;-71
2023/12/21 12:27:55;;;;;;;0.60;0.60;;;9.70;99.90;;;;;;4896205;29;20214;-72
2023/12/21 12:30:22;;;;;;;0.60;0.60;;;9.60;99.90;;;;;;4896754;29;20592;-71
2023/12/21 12:32:49;;;;;;;0.73;0.73;;;9.60;99.90;;;;;;4896762;29;20212;-71
2023/12/21 12:35:19;;;;;;;0.68;0.63;;;9.50;99.90;;;;;;4889691;29;20575;-71
2023/12/21 12:37:49;;;;;;;1.13;0.95;;;9.40;99.90;;;;;;4891022;29;20573;-72
2023/12/21 12:40:22;;;;;;;1.10;0.80;;;9.30;99.90;;;;;;4892047;29;20209;-71
2023/12/21 12:42:52;;;;;;;0.52;0.52;;;9.10;99.90;;;;;;4894820;29;20219;-72
2023/12/21 12:45:24;;;;;;;0.35;0.35;;;8.90;99.90;;;;;;4896424;29;20789;-71
2023/12/21 12:47:53;;;;;;;2.55;0.52;;;8.60;99.90;;;;;;4895369;29;20681;-72
2023/12/21 12:50:23;;;;;;;0.85;0.43;;;8.50;99.90;;;;;;4895680;29;20702;-72
2023/12/21 12:52:54;;;;;;;0.65;0.65;;;8.40;99.90;;;;;;4894650;29;20688;-71
2023/12/21 12:55:25;;;;;;;1.38;0.50;;;8.30;99.90;;;;;;4890923;29;20214;-72
2023/12/21 12:57:53;;;;;;;0.30;0.30;;;8.20;99.90;;;;;;4890521;29;20215;-72
2023/12/21 13:00:20;;;;;;;1.10;1.00;;;8.10;99.90;;;;;;4892863;29;20706;-72
2023/12/21 13:02:51;;;;;;;4.43;0.93;;;8.00;99.90;;;;;;4894559;29;20211;-73
2023/12/21 13:05:18;;;;;;;0.47;0.47;;;7.90;99.90;;;;;;4889656;29;20208;-72
2023/12/21 13:07:45;;;;;;;0.80;0.80;;;7.90;99.90;;;;;;4896033;29;20226;-71
2023/12/21 13:10:15;;;;;;;2.65;0.70;;;7.90;99.90;;;;;;4893194;29;20235;-71
2023/12/21 13:12:43;;;;;;;2.60;1.20;;;7.90;99.90;;;;;;4895688;29;20211;-71
2023/12/21 13:15:12;;;;;;;0.82;0.70;;;7.90;99.90;;;;;;4894350;29;20227;-72
2023/12/21 13:17:42;;;;;;;0.52;0.50;;;7.80;99.90;;;;;;4893516;29;20211;-72
2023/12/21 13:20:15;;;;;;;0.57;0.57;;;7.80;99.90;;;;;;4895729;29;20228;-72
2023/12/21 13:22:47;;;;;;;1.65;0.98;;;7.80;99.90;;;;;;4895443;29;20215;-71
2023/12/21 13:25:17;;;;;;;0.32;0.30;;;7.80;99.90;;;;;;4897819;29;20210;-71
2023/12/21 13:27:44;;;;;;;0.73;0.40;;;7.80;99.90;;;;;;4894737;29;20221;-71
2023/12/21 13:30:13;;;;;;;0.30;0.30;;;7.80;99.90;;;;;;4895890;29;20656;-72
2023/12/21 13:32:40;;;;;;;0.73;0.73;;;7.80;99.90;;;;;;4900866;29;20206;-72
2023/12/21 13:35:08;;;;;;;0.65;0.65;;;7.80;99.90;;;;;;4895425;29;20202;-71
2023/12/21 13:37:37;;;;;;;1.17;0.88;;;7.70;99.90;;;;;;4896033;29;20222;-72
2023/12/21 13:40:05;;;;;;;2.15;0.93;;;7.70;99.90;;;;;;4895245;29;20290;-72
2023/12/21 13:42:34;;;;;;;0.65;0.63;;;7.70;99.90;;;;;;4895719;29;20246;-72
2023/12/21 13:45:06;;;;;;;0.65;0.60;;;7.70;99.90;;;;;;4894190;29;20207;-72
2023/12/21 13:47:35;;;;;;;2.38;1.38;;;7.70;99.90;;;;;;4894892;29;20214;-71
2023/12/21 13:50:03;;;;;;;2.25;0.47;;;7.70;99.90;;;;;;4893784;29;20212;-71
2023/12/21 13:52:43;;;;;;;0.95;0.93;;;7.70;99.90;;;;;;4892947;29;20231;-71
2023/12/21 13:55:14;;;;;;;1.48;1.48;;;7.70;99.90;;;;;;4895327;29;20310;-72
2023/12/21 13:57:43;;;;;;;2.13;1.50;;;7.70;99.90;;;;;;4895901;29;20317;-72
2023/12/21 14:00:11;;;;;;;5.85;1.13;;;7.70;99.90;;;;;;4893373;29;20225;-72
2023/12/21 14:02:42;;;;;;;3.90;0.57;;;7.70;99.90;;;;;;4892440;29;20246;-71
2023/12/21 14:05:09;;;;;;;5.65;1.60;;;7.70;99.90;;;;;;4888289;29;20215;-72
2023/12/21 14:07:37;;;;;;;2.65;1.90;;;7.70;99.90;;;;;;4891749;29;20250;-70
2023/12/21 14:10:05;;;;;;;1.30;1.25;;;7.70;99.90;;;;;;4894761;29;20218;-71
2023/12/21 14:12:35;;;;;;;2.95;1.17;;;7.70;99.90;;;;;;4894156;29;20226;-72
2023/12/21 14:15:05;;;;;;;6.93;1.92;;;7.70;99.90;;;;;;4895122;29;20218;-71
2023/12/21 14:17:33;;;;;;;2.38;0.95;;;7.70;99.90;;;;;;4896447;29;20222;-71
2023/12/21 14:20:06;;;;;;;2.60;1.80;;;7.70;99.90;;;;;;4895125;29;20294;-71
2023/12/21 14:22:33;;;;;;;1.45;0.60;;;7.70;99.90;;;;;;4893830;29;20257;-72
2023/12/21 14:25:00;;;;;;;4.65;1.85;;;7.70;99.90;;;;;;4894511;29;20207;-71
2023/12/21 14:27:30;;;;;;;1.55;1.45;;;7.70;99.90;;;;;;4895163;29;20215;-71
2023/12/21 14:29:57;;;;;;;5.55;1.85;;;7.70;99.90;;;;;;4891437;29;20218;-70
2023/12/21 14:32:29;;;;;;;7.05;1.50;;;7.70;99.90;;;;;;4891637;29;20231;-72
2023/12/21 14:34:56;;;;;;;2.35;1.90;;;7.70;99.90;;;;;;4895354;29;20223;-72
2023/12/21 14:37:26;;;;;;;5.88;1.60;;;7.70;99.90;;;;;;4899139;29;20222;-71
2023/12/21 14:39:53;;;;;;;6.13;1.60;;;7.70;99.90;;;;;;4898356;29;20297;-71
2023/12/21 14:42:21;;;;;;;4.93;1.35;;;7.70;99.90;;;;;;4898638;29;20295;-71
2023/12/21 14:44:51;;;;;;;5.00;1.77;;;7.70;99.90;;;;;;4898466;29;20207;-71
2023/12/21 14:47:23;;;;;;;11.00;2.05;;;7.80;99.90;;;;;;4893470;29;20794;-71
2023/12/21 14:49:54;;;;;;;3.80;2.70;;;7.80;99.90;;;;;;4898310;29;20303;-71
2023/12/21 14:52:28;;;;;;;11.25;2.58;;;7.80;99.90;;;;;;4893689;29;20329;-71
2023/12/21 14:55:07;;;;;;;6.22;2.15;;;7.80;99.90;;;;;;4897524;29;20313;-71
2023/12/21 14:57:37;;;;;;;2.97;1.30;;;7.80;99.90;;;;;;4900936;29;20211;-71
2023/12/21 15:00:18;;;;;;;7.57;2.10;;;7.90;99.90;;;;;;4898849;29;20219;-73
2023/12/21 15:02:45;;;;;;;8.25;1.55;;;8.00;99.90;;;;;;4892996;29;20682;-73
2023/12/21 15:05:19;;;;;;;7.22;2.13;;;8.00;99.90;;;;;;4898315;29;20242;-70
2023/12/21 15:07:46;;;;;;;5.18;1.63;;;8.00;99.90;;;;;;4899808;29;20219;-71
2023/12/21 15:10:15;;;;;;;17.60;1.83;;;8.00;99.90;;;;;;4899910;29;20203;-72
2023/12/21 15:12:44;;;;;;;5.22;1.83;;;7.90;99.90;;;;;;4895407;29;20575;-72
2023/12/21 15:15:11;;;;;;;4.10;1.38;;;7.70;99.90;;;;;;4900247;29;20678;-71
2023/12/21 15:17:48;;;;;;;7.15;2.67;;;7.40;99.90;;;;;;4903826;29;20500;-71
2023/12/21 15:20:18;;;;;;;3.50;1.52;;;7.30;99.90;;;;;;4895674;29;20767;-71
2023/12/21 15:22:52;;;;;;;7.97;1.92;;;7.20;99.90;;;;;;4896840;29;20258;-72
2023/12/21 15:25:21;;;;;;;4.57;1.95;;;7.30;99.90;;;;;;4890985;29;20580;-71
2023/12/21 15:27:48;;;;;;;7.18;2.45;;;7.30;99.90;;;;;;4896912;29;20271;-71
2023/12/21 15:30:16;;;;;;;8.88;2.65;;;7.30;99.90;;;;;;4894955;29;20306;-71
2023/12/21 15:32:47;;;;;;;6.68;2.35;;;7.30;99.90;;;;;;4895948;29;20274;-71
2023/12/21 15:35:18;;;;;;;7.13;3.30;;;7.30;99.90;;;;;;4896526;29;20218;-71
2023/12/21 15:37:49;;;;;;;6.18;2.47;;;7.20;99.90;;;;;;4901938;29;20583;-71
2023/12/21 15:40:17;;;;;;;13.15;2.38;;;7.20;99.90;;;;;;4895481;29;20566;-71
2023/12/21 15:42:44;;;;;;;12.73;3.22;;;7.20;99.90;;;;;;4893644;29;20575;-72
2023/12/21 15:45:18;;;;;;;8.07;2.42;;;7.10;99.90;;;;;;4891319;29;20282;-72
2023/12/21 15:47:45;;;;;;;1.52;1.52;;;7.10;99.90;;;;;;4898116;29;20319;-72
2023/12/21 15:50:17;;;;;;;6.18;3.50;;;7.10;99.90;;;;;;4896758;29;20243;-72
2023/12/21 15:52:58;;;;;;;4.85;2.22;;;7.20;99.90;;;;;;4892834;29;20254;-71
2023/12/21 15:55:27;;;;;;;15.43;3.05;;;7.10;99.90;;;;;;4895924;29;20219;-71
2023/12/21 15:58:03;;;;;;;6.70;3.95;;;7.20;99.90;;;;;;4891526;29;20623;-70
2023/12/21 16:00:38;;;;;;;5.55;3.88;;;7.20;99.90;;;;;;4888874;29;20645;-71
2023/12/21 16:03:10;;;;;;;11.95;7.05;;;7.20;99.90;;;;;;4890625;29;20278;-71
2023/12/21 16:05:42;;;;;;;6.85;6.25;;;7.20;99.90;;;;;;4895955;29;20655;-71
2023/12/21 16:08:15;;;;;;;8.18;3.25;;;7.20;99.90;;;;;;4898332;29;21502;-70
2023/12/21 16:10:43;;;;;;;12.32;4.00;;;7.10;99.90;;;;;;4891265;29;20728;-71
2023/12/21 16:13:12;;;;;;;8.50;3.58;;;7.00;99.90;;;;;;4893308;29;20696;-70
2023/12/21 16:15:42;;;;;;;17.67;3.30;;;6.90;99.90;;;;;;4893879;29;20207;-71
2023/12/21 16:18:10;;;;;;;5.65;3.53;;;6.80;99.90;;;;;;4899288;29;20212;-70
2023/12/21 16:20:50;;;;;;;10.77;4.22;;;6.70;99.90;;;;;;4898462;29;20238;-71
2023/12/21 16:23:30;;;;;;;4.10;3.33;;;6.60;99.90;;;;;;4890414;29;20270;-71
2023/12/21 16:26:00;;;;;;;21.83;8.30;;;6.50;99.90;;;;;;4887772;29;20215;-71
2023/12/21 16:28:29;;;;;;;5.75;4.13;;;6.50;99.90;;;;;;4895815;29;20305;-71
2023/12/21 16:31:02;;;;;;;14.60;5.78;;;6.40;99.90;;;;;;4895829;29;20235;-71
2023/12/21 16:33:33;;;;;;;14.00;4.05;;;6.40;99.90;;;;;;4892159;29;20211;-71
2023/12/21 16:36:00;;;;;;;16.05;3.50;;;6.50;99.90;;;;;;4894826;29;20238;-71
2023/12/21 16:38:32;;;;;;;6.68;2.30;;;6.50;99.90;;;;;;4886429;29;20295;-72
2023/12/21 16:41:15;;;;;;;21.48;2.97;;;6.60;99.90;;;;;;4896234;29;20241;-72
2023/12/21 16:43:44;;;;;;;12.60;3.30;;;6.60;99.90;;;;;;4900321;29;20238;-73
2023/12/21 16:46:12;;;;;;;5.30;2.20;;;6.60;99.90;;;;;;4895750;29;20234;-72
2023/12/21 16:48:39;;;;;;;11.10;4.25;;;6.60;99.90;;;;;;4889821;29;20218;-74
2023/12/21 16:51:11;;;;;;;8.38;3.38;;;6.70;99.90;;;;;;4893114;29;21018;-74
2023/12/21 16:53:42;;;;;;;5.15;1.80;;;6.70;99.90;;;;;;4895002;29;20301;-74
2023/12/21 16:56:14;;;;;;;11.32;2.83;;;6.70;99.90;;;;;;4893956;29;20211;-72
2023/12/21 16:58:41;;;;;;;8.65;1.90;;;6.70;99.90;;;;;;4898845;29;20215;-73
2023/12/21 17:01:12;;;;;;;13.52;4.28;;;6.60;99.90;;;;;;4895456;29;20315;-72
2023/12/21 17:03:45;;;;;;;11.23;2.05;;;6.60;99.90;;;;;;4900778;29;20232;-73
2023/12/21 17:06:15;;;;;;;3.92;2.03;;;6.60;99.90;;;;;;4900631;29;20217;-72
2023/12/21 17:08:46;;;;;;;6.72;2.40;;;6.50;99.90;;;;;;4902768;29;20216;-72
2023/12/21 17:11:15;;;;;;;1.55;0.75;;;6.50;99.90;;;;;;4903987;29;20324;-73
2023/12/21 17:13:43;;;;;;;10.57;2.08;;;6.50;99.90;;;;;;4901679;29;20610;-73
2023/12/21 17:16:13;;;;;;;1.77;1.63;;;6.50;99.90;;;;;;4902379;29;20238;-73
2023/12/21 17:18:41;;;;;;;10.23;2.53;;;6.60;99.90;;;;;;4904132;29;20224;-73
2023/12/21 17:21:11;;;;;;;8.65;2.63;;;6.60;99.90;;;;;;4898436;29;20260;-72
2023/12/21 17:23:38;;;;;;;3.95;1.83;;;6.60;99.90;;;;;;4903302;29;20219;-72
2023/12/21 17:26:08;;;;;;;10.35;2.65;;;6.60;99.90;;;;;;4895583;29;20217;-72
2023/12/21 17:28:40;;;;;;;11.10;2.60;;;6.50;99.90;;;;;;4908229;29;20233;-72
2023/12/21 17:31:07;;;;;;;4.93;2.13;;;6.50;99.90;;;;;;4894250;29;20328;-71
2023/12/21 17:33:38;;;;;;;6.32;1.85;;;6.50;99.90;;;;;;4894039;29;20232;-73
2023/12/21 17:36:05;;;;;;;20.38;2.97;;;6.50;99.90;;;;;;4890606;29;20213;-72
2023/12/21 17:38:33;;;;;;;3.95;2.78;;;6.50;99.90;;;;;;4894443;29;20218;-73
2023/12/21 17:41:01;;;;;;;33.22;2.90;;;6.50;99.90;;;;;;4894051;29;20328;-74
2023/12/21 17:43:31;;;;;;;5.90;1.90;;;6.60;99.90;;;;;;4895338;29;20249;-73
2023/12/21 17:45:59;;;;;;;8.73;2.15;;;6.60;99.90;;;;;;4891012;29;20246;-73
2023/12/21 17:48:30;;;;;;;5.65;2.35;;;6.60;99.90;;;;;;4893640;29;20210;-73
2023/12/21 17:51:00;;;;;;;13.98;2.20;;;6.50;99.90;;;;;;4893004;29;20286;-74
2023/12/21 17:53:27;;;;;;;2.22;1.40;;;6.50;99.90;;;;;;4893587;29;20233;-72
2023/12/21 17:55:56;;;;;;;1.95;1.17;;;6.40;99.90;;;;;;4897817;29;20213;-73
2023/12/21 17:58:24;;;;;;;5.82;1.88;;;6.30;99.90;;;;;;4887958;29;20223;-72
2023/12/21 18:00:53;;;;;;;4.75;1.70;;;6.30;99.90;;;;;;4894286;29;20241;-72
2023/12/21 18:03:29;;;;;;;13.40;1.52;;;6.20;99.90;;;;;;4894348;29;20246;-73